Goldsboro, Maryland
Current Conditions -  °F | °C
As of 4:58 PM on Saturday 25 Oct 2014 (Local Time) from KDOV Reporting Station
Clear Clear  
Wind Chill: 68°   Ceiling: Unl
Heat Index: 68°   Visibility: 10mi
Dew Point: 44°   Wind: 12mph
Humidity: 43%   Direction: 230°SW
Pressure: 29.73"   Gusts: 23mph
Location:  39.03°N, 75.79°W
Report Text: KDOV 252058Z AUTO 23010G20KT 10SM CLR 20/07 A2973 RMK AO2 SLP071 T01990069 57019
Loading
Personal Weather Stations






























Interactive Weather Map
Tropical Storm Tracking
New forecast layout! Learn more

10-Day Weather Forecast

Advertisements
Track Severe Weather on mobile